PWSweather.com
Personal Weather Stations
Station Observations
BWSWX1
Teesside, BillinghamGB TS23 1DL

TeessideBillinghamGB TS23 1DL

Lat: 54.588219, Lon: -1.289528

Elevation: 39

Station Type: Davis Vantage Pro2 Plus

http://billinghamweather.com/index.php

High Low Average
Temperature 48.5°F9.2°F 36.0°F2.2°F 42.7°F5.9°F
Dew Point 41.0°F5.0°F 30.2°F-1.0°F 36.7°F2.6°F
Winds 8.9 mph NW14.3 mph NW Calm Calm 3.4 mph 5.5 mph
Wind Gusts 14.0 mph22.5 mph -- 6.1 mph9.8 mph
Humidity 87% 66% 79%
Pressure 30.09 in1019.00 in 30.02 in1016.60 in -
Precipitation 0.00 in0.00 in - -
Hour Temp Dew Point Humidity Winds Wind Gusts Pressure Precip Precip Rate Daily Precip Total
12:00 AM 43.4°F6.3°C 39.2°F4.0°C 85% 2.0 mph S3.2 kmh S 4.0 mph6.4 kmh 30.09 in1019.0 mb - 0.00 in0.0 mm 0.00 in0.0 mm
12:10 AM 43.5°F6.4°C 39.3°F4.1°C 85% 1.8 mph S2.9 kmh S 4.0 mph6.4 kmh 30.09 in1019.0 mb - 0.00 in0.0 mm 0.00 in0.0 mm
12:20 AM 43.6°F6.4°C 39.1°F3.9°C 84% 1.0 mph SW1.6 kmh SW 4.0 mph6.4 kmh 30.09 in1019.0 mb - 0.00 in0.0 mm 0.00 in0.0 mm
12:30 AM 43.7°F6.5°C 39.2°F4.0°C 84% 2.0 mph SSE3.2 kmh SSE 6.0 mph9.7 kmh 30.09 in1019.0 mb - 0.00 in0.0 mm 0.00 in0.0 mm
12:40 AM 43.8°F6.6°C 39.3°F4.1°C 84% 1.6 mph WSW2.6 kmh WSW 4.0 mph6.4 kmh 30.08 in1018.6 mb - 0.00 in0.0 mm 0.00 in0.0 mm
12:50 AM 43.6°F6.4°C 39.1°F3.9°C 84% 2.9 mph E4.7 kmh E 8.0 mph12.9 kmh 30.08 in1018.6 mb - 0.00 in0.0 mm 0.00 in0.0 mm
01:00 AM 43.4°F6.3°C 38.9°F3.8°C 84% 1.4 mph SSE2.3 kmh SSE 3.0 mph4.8 kmh 30.07 in1018.3 mb - 0.00 in0.0 mm 0.00 in0.0 mm
01:10 AM 43.3°F6.3°C 39.1°F3.9°C 85% 3.4 mph SW5.5 kmh SW 7.0 mph11.3 kmh 30.07 in1018.3 mb - 0.00 in0.0 mm 0.00 in0.0 mm
01:20 AM 43.5°F6.4°C 39.3°F4.1°C 85% 4.6 mph SW7.4 kmh SW 6.0 mph9.7 kmh 30.07 in1018.3 mb - 0.00 in0.0 mm 0.00 in0.0 mm
01:30 AM 44.0°F6.7°C 39.7°F4.3°C 85% 5.2 mph WSW8.4 kmh WSW 11.0 mph17.7 kmh 30.07 in1018.3 mb - 0.00 in0.0 mm 0.00 in0.0 mm
01:40 AM 44.5°F6.9°C 40.0°F4.4°C 84% 7.7 mph W12.4 kmh W 13.0 mph20.9 kmh 30.06 in1017.9 mb - 0.00 in0.0 mm 0.00 in0.0 mm
01:50 AM 45.2°F7.3°C 40.3°F4.6°C 83% 7.7 mph W12.4 kmh W 9.0 mph14.5 kmh 30.06 in1017.9 mb - 0.00 in0.0 mm 0.00 in0.0 mm
02:00 AM 45.5°F7.5°C 40.3°F4.6°C 82% 7.0 mph SW11.3 kmh SW 10.0 mph16.1 kmh 30.06 in1017.9 mb - 0.00 in0.0 mm 0.00 in0.0 mm
02:10 AM 45.5°F7.5°C 40.3°F4.6°C 82% 6.1 mph WSW9.8 kmh WSW 10.0 mph16.1 kmh 30.06 in1017.9 mb - 0.00 in0.0 mm 0.00 in0.0 mm
02:20 AM 45.3°F7.4°C 40.1°F4.5°C 82% 6.3 mph WSW10.1 kmh WSW 11.0 mph17.7 kmh 30.05 in1017.6 mb - 0.00 in0.0 mm 0.00 in0.0 mm
02:30 AM 45.2°F7.3°C 40.0°F4.4°C 82% 7.5 mph W12.1 kmh W 9.0 mph14.5 kmh 30.04 in1017.3 mb - 0.00 in0.0 mm 0.00 in0.0 mm
02:40 AM 45.1°F7.3°C 39.9°F4.4°C 82% 7.1 mph WSW11.4 kmh WSW 10.0 mph16.1 kmh 30.04 in1017.3 mb - 0.00 in0.0 mm 0.00 in0.0 mm
02:50 AM 45.0°F7.2°C 39.8°F4.3°C 82% 4.0 mph WSW6.4 kmh WSW 5.0 mph8.0 kmh 30.05 in1017.6 mb - 0.00 in0.0 mm 0.00 in0.0 mm
03:00 AM 44.9°F7.2°C 40.0°F4.4°C 83% 4.0 mph WSW6.4 kmh WSW 7.0 mph11.3 kmh 30.04 in1017.3 mb - 0.00 in0.0 mm 0.00 in0.0 mm
03:10 AM 44.7°F7.1°C 39.9°F4.4°C 83% 3.4 mph WSW5.5 kmh WSW 6.0 mph9.7 kmh 30.04 in1017.3 mb - 0.00 in0.0 mm 0.00 in0.0 mm
03:20 AM 44.6°F7.0°C 39.8°F4.3°C 83% 4.9 mph WSW7.9 kmh WSW 7.0 mph11.3 kmh 30.04 in1017.3 mb - 0.00 in0.0 mm 0.00 in0.0 mm
03:30 AM 44.5°F6.9°C 40.0°F4.4°C 84% 4.0 mph W6.4 kmh W 9.0 mph14.5 kmh 30.04 in1017.3 mb - 0.00 in0.0 mm 0.00 in0.0 mm
03:40 AM 44.3°F6.8°C 39.8°F4.3°C 84% 4.2 mph W6.8 kmh W 7.0 mph11.3 kmh 30.04 in1017.3 mb - 0.00 in0.0 mm 0.00 in0.0 mm
03:50 AM 44.5°F6.9°C 39.9°F4.4°C 84% 5.7 mph WSW9.2 kmh WSW 9.0 mph14.5 kmh 30.03 in1016.9 mb - 0.00 in0.0 mm 0.00 in0.0 mm
04:00 AM 44.7°F7.1°C 40.2°F4.6°C 84% 7.5 mph WSW12.1 kmh WSW 11.0 mph17.7 kmh 30.03 in1016.9 mb - 0.00 in0.0 mm 0.00 in0.0 mm
04:10 AM 44.9°F7.2°C 40.4°F4.7°C 84% 6.0 mph WSW9.7 kmh WSW 12.0 mph19.3 kmh 30.03 in1016.9 mb - 0.00 in0.0 mm 0.00 in0.0 mm
04:20 AM 45.2°F7.3°C 40.7°F4.8°C 84% 5.2 mph WSW8.4 kmh WSW 11.0 mph17.7 kmh 30.03 in1016.9 mb - 0.00 in0.0 mm 0.00 in0.0 mm
04:30 AM 45.4°F7.4°C 40.8°F4.9°C 84% 4.9 mph WSW7.9 kmh WSW 11.0 mph17.7 kmh 30.03 in1016.9 mb - 0.00 in0.0 mm 0.00 in0.0 mm
04:40 AM 45.6°F7.6°C 41.0°F5.0°C 84% 5.6 mph WSW9.0 kmh WSW 8.0 mph12.9 kmh 30.03 in1016.9 mb - 0.00 in0.0 mm 0.00 in0.0 mm
04:50 AM 45.5°F7.5°C 40.9°F4.9°C 84% 4.7 mph SW7.6 kmh SW 8.0 mph12.9 kmh 30.02 in1016.6 mb - 0.00 in0.0 mm 0.00 in0.0 mm
05:00 AM 45.2°F7.3°C 40.7°F4.8°C 84% 4.9 mph WSW7.9 kmh WSW 6.0 mph9.7 kmh 30.02 in1016.6 mb - 0.00 in0.0 mm 0.00 in0.0 mm
05:10 AM 44.9°F7.2°C 40.4°F4.7°C 84% 4.4 mph WSW7.1 kmh WSW 5.0 mph8.0 kmh 30.02 in1016.6 mb - 0.00 in0.0 mm 0.00 in0.0 mm
05:20 AM 44.6°F7.0°C 40.4°F4.7°C 85% 2.3 mph WSW3.7 kmh WSW 6.0 mph9.7 kmh 30.02 in1016.6 mb - 0.00 in0.0 mm 0.00 in0.0 mm
05:30 AM 44.4°F6.9°C 40.2°F4.6°C 85% 5.1 mph W8.2 kmh W 8.0 mph12.9 kmh 30.02 in1016.6 mb - 0.00 in0.0 mm 0.00 in0.0 mm
05:40 AM 44.5°F6.9°C 39.9°F4.4°C 84% 3.8 mph WSW6.1 kmh WSW 10.0 mph16.1 kmh 30.02 in1016.6 mb - 0.00 in0.0 mm 0.00 in0.0 mm
05:50 AM 44.5°F6.9°C 40.0°F4.4°C 84% 4.6 mph WSW7.4 kmh WSW 10.0 mph16.1 kmh 30.02 in1016.6 mb - 0.00 in0.0 mm 0.00 in0.0 mm
06:00 AM 44.5°F6.9°C 39.7°F4.3°C 83% 4.2 mph SW6.8 kmh SW 5.0 mph8.0 kmh 30.03 in1016.9 mb - 0.00 in0.0 mm 0.00 in0.0 mm
06:10 AM 44.5°F6.9°C 39.7°F4.3°C 83% 4.3 mph SW6.9 kmh SW 8.0 mph12.9 kmh 30.03 in1016.9 mb - 0.00 in0.0 mm 0.00 in0.0 mm
06:20 AM 44.5°F6.9°C 39.7°F4.3°C 83% 3.2 mph W5.1 kmh W 6.0 mph9.7 kmh 30.03 in1016.9 mb - 0.00 in0.0 mm 0.00 in0.0 mm
06:30 AM 44.4°F6.9°C 39.6°F4.2°C 83% 4.1 mph WSW6.6 kmh WSW 7.0 mph11.3 kmh 30.04 in1017.3 mb - 0.00 in0.0 mm 0.00 in0.0 mm
06:40 AM 44.3°F6.8°C 39.5°F4.2°C 83% 3.2 mph W5.1 kmh W 5.0 mph8.0 kmh 30.04 in1017.3 mb - 0.00 in0.0 mm 0.00 in0.0 mm
06:50 AM 44.2°F6.8°C 39.7°F4.3°C 84% 2.6 mph WNW4.2 kmh WNW 4.0 mph6.4 kmh 30.04 in1017.3 mb - 0.00 in0.0 mm 0.00 in0.0 mm
07:00 AM 44.3°F6.8°C 39.8°F4.3°C 84% 2.7 mph WNW4.3 kmh WNW 5.0 mph8.0 kmh 30.04 in1017.3 mb - 0.00 in0.0 mm 0.00 in0.0 mm
07:10 AM 44.4°F6.9°C 39.9°F4.4°C 84% 2.0 mph SW3.2 kmh SW 4.0 mph6.4 kmh 30.05 in1017.6 mb - 0.00 in0.0 mm 0.00 in0.0 mm
07:20 AM 44.6°F7.0°C 40.1°F4.5°C 84% 4.0 mph W6.4 kmh W 7.0 mph11.3 kmh 30.05 in1017.6 mb - 0.00 in0.0 mm 0.00 in0.0 mm
07:30 AM 44.8°F7.1°C 40.0°F4.4°C 83% 5.3 mph NW8.5 kmh NW 7.0 mph11.3 kmh 30.05 in1017.6 mb - 0.00 in0.0 mm 0.00 in0.0 mm
07:40 AM 45.0°F7.2°C 40.1°F4.5°C 83% 3.0 mph N4.8 kmh N 8.0 mph12.9 kmh 30.05 in1017.6 mb - 0.00 in0.0 mm 0.00 in0.0 mm
07:50 AM 45.1°F7.3°C 40.3°F4.6°C 83% 4.1 mph NW6.6 kmh NW 6.0 mph9.7 kmh 30.05 in1017.6 mb - 0.00 in0.0 mm 0.00 in0.0 mm
08:00 AM 45.2°F7.3°C 40.3°F4.6°C 83% 2.8 mph NW4.5 kmh NW 5.0 mph8.0 kmh 30.05 in1017.6 mb - 0.00 in0.0 mm 0.00 in0.0 mm
08:10 AM 45.2°F7.3°C 40.3°F4.6°C 83% 1.7 mph W2.7 kmh W 3.0 mph4.8 kmh 30.05 in1017.6 mb - 0.00 in0.0 mm 0.00 in0.0 mm
08:20 AM 45.1°F7.3°C 40.2°F4.6°C 83% 4.0 mph WNW6.4 kmh WNW 7.0 mph11.3 kmh 30.06 in1017.9 mb - 0.00 in0.0 mm 0.00 in0.0 mm
08:30 AM 45.1°F7.3°C 40.2°F4.6°C 83% 3.0 mph NW4.8 kmh NW 7.0 mph11.3 kmh 30.06 in1017.9 mb - 0.00 in0.0 mm 0.00 in0.0 mm
08:40 AM 45.0°F7.2°C 40.1°F4.5°C 83% 2.0 mph WSW3.2 kmh WSW 3.0 mph4.8 kmh 30.06 in1017.9 mb - 0.00 in0.0 mm 0.00 in0.0 mm
08:50 AM 44.9°F7.2°C 40.0°F4.4°C 83% 2.3 mph W3.7 kmh W 3.0 mph4.8 kmh 30.06 in1017.9 mb - 0.00 in0.0 mm 0.00 in0.0 mm
09:00 AM 44.8°F7.1°C 40.0°F4.4°C 83% 1.3 mph NNW2.1 kmh NNW 3.0 mph4.8 kmh 30.07 in1018.3 mb - 0.00 in0.0 mm 0.00 in0.0 mm
09:10 AM 44.6°F7.0°C 39.4°F4.1°C 82% 5.4 mph NW8.7 kmh NW 8.0 mph12.9 kmh 30.07 in1018.3 mb - 0.00 in0.0 mm 0.00 in0.0 mm
09:20 AM 44.3°F6.8°C 39.2°F4.0°C 82% 1.5 mph SW2.4 kmh SW 5.0 mph8.0 kmh 30.06 in1017.9 mb - 0.00 in0.0 mm 0.00 in0.0 mm
09:30 AM 44.2°F6.8°C 38.7°F3.7°C 81% 1.2 mph WSW1.9 kmh WSW 4.0 mph6.4 kmh 30.06 in1017.9 mb - 0.00 in0.0 mm 0.00 in0.0 mm
09:40 AM 44.2°F6.8°C 39.1°F3.9°C 82% 1.9 mph W3.1 kmh W 5.0 mph8.0 kmh 30.06 in1017.9 mb - 0.00 in0.0 mm 0.00 in0.0 mm
09:50 AM 44.5°F6.9°C 39.0°F3.9°C 81% 2.8 mph WSW4.5 kmh WSW 7.0 mph11.3 kmh 30.06 in1017.9 mb - 0.00 in0.0 mm 0.00 in0.0 mm
10:00 AM 44.8°F7.1°C 39.3°F4.1°C 81% 3.2 mph WSW5.1 kmh WSW 9.0 mph14.5 kmh 30.06 in1017.9 mb - 0.00 in0.0 mm 0.00 in0.0 mm
10:10 AM 45.1°F7.3°C 39.6°F4.2°C 81% 3.4 mph W5.5 kmh W 9.0 mph14.5 kmh 30.06 in1017.9 mb - 0.00 in0.0 mm 0.00 in0.0 mm
10:20 AM 45.5°F7.5°C 39.7°F4.3°C 80% 4.0 mph WSW6.4 kmh WSW 7.0 mph11.3 kmh 30.06 in1017.9 mb - 0.00 in0.0 mm 0.00 in0.0 mm
10:30 AM 46.1°F7.8°C 39.6°F4.2°C 78% 3.7 mph NNW6.0 kmh NNW 8.0 mph12.9 kmh 30.06 in1017.9 mb - 0.00 in0.0 mm 0.00 in0.0 mm
10:40 AM 46.5°F8.1°C 39.3°F4.1°C 76% 2.6 mph WNW4.2 kmh WNW 4.0 mph6.4 kmh 30.06 in1017.9 mb - 0.00 in0.0 mm 0.00 in0.0 mm
10:50 AM 46.7°F8.2°C 38.9°F3.8°C 74% 3.0 mph NW4.8 kmh NW 4.0 mph6.4 kmh 30.05 in1017.6 mb - 0.00 in0.0 mm 0.00 in0.0 mm
11:00 AM 47.0°F8.3°C 39.1°F3.9°C 74% 5.3 mph W8.5 kmh W 8.0 mph12.9 kmh 30.05 in1017.6 mb - 0.00 in0.0 mm 0.00 in0.0 mm
11:10 AM 47.5°F8.6°C 38.9°F3.8°C 72% 6.6 mph NW10.6 kmh NW 11.0 mph17.7 kmh 30.05 in1017.6 mb - 0.00 in0.0 mm 0.00 in0.0 mm
11:20 AM 48.1°F8.9°C 39.1°F3.9°C 71% 3.6 mph WSW5.8 kmh WSW 7.0 mph11.3 kmh 30.05 in1017.6 mb - 0.00 in0.0 mm 0.00 in0.0 mm
11:30 AM 48.5°F9.2°C 38.8°F3.8°C 69% 6.1 mph NW9.8 kmh NW 14.0 mph22.5 kmh 30.05 in1017.6 mb - 0.00 in0.0 mm 0.00 in0.0 mm
11:40 AM 48.2°F9.0°C 38.1°F3.4°C 68% 7.7 mph WNW12.4 kmh WNW 11.0 mph17.7 kmh 30.05 in1017.6 mb - 0.00 in0.0 mm 0.00 in0.0 mm
11:50 AM 47.9°F8.8°C 38.2°F3.4°C 69% 8.6 mph WSW13.8 kmh WSW 13.0 mph20.9 kmh 30.05 in1017.6 mb - 0.00 in0.0 mm 0.00 in0.0 mm
12:00 PM 47.4°F8.6°C 37.3°F2.9°C 68% 8.3 mph NW13.4 kmh NW 13.0 mph20.9 kmh 30.05 in1017.6 mb - 0.00 in0.0 mm 0.00 in0.0 mm
12:10 PM 46.9°F8.3°C 36.9°F2.7°C 68% 6.7 mph NW10.8 kmh NW 10.0 mph16.1 kmh 30.05 in1017.6 mb - 0.00 in0.0 mm 0.00 in0.0 mm
12:20 PM 46.5°F8.1°C 36.9°F2.7°C 69% 8.9 mph NW14.3 kmh NW 11.0 mph17.7 kmh 30.05 in1017.6 mb - 0.00 in0.0 mm 0.00 in0.0 mm
12:30 PM 46.3°F7.9°C 36.7°F2.6°C 69% 5.8 mph NNW9.3 kmh NNW 11.0 mph17.7 kmh 30.05 in1017.6 mb - 0.00 in0.0 mm 0.00 in0.0 mm
12:40 PM 46.3°F7.9°C 36.7°F2.6°C 69% 8.3 mph NW13.4 kmh NW 14.0 mph22.5 kmh 30.05 in1017.6 mb - 0.00 in0.0 mm 0.00 in0.0 mm
12:50 PM 46.3°F7.9°C 36.7°F2.6°C 69% 6.2 mph NW10.0 kmh NW 12.0 mph19.3 kmh 30.05 in1017.6 mb - 0.00 in0.0 mm 0.00 in0.0 mm
01:00 PM 46.3°F7.9°C 36.7°F2.6°C 69% 4.5 mph WSW7.2 kmh WSW 10.0 mph16.1 kmh 30.05 in1017.6 mb - 0.00 in0.0 mm 0.00 in0.0 mm
01:10 PM 46.3°F7.9°C 36.3°F2.4°C 68% 5.6 mph W9.0 kmh W 10.0 mph16.1 kmh 30.05 in1017.6 mb - 0.00 in0.0 mm 0.00 in0.0 mm
01:20 PM 46.4°F8.0°C 36.8°F2.7°C 69% 4.9 mph NW7.9 kmh NW 12.0 mph19.3 kmh 30.06 in1017.9 mb - 0.00 in0.0 mm 0.00 in0.0 mm
01:30 PM 46.3°F7.9°C 36.3°F2.4°C 68% 4.8 mph NW7.7 kmh NW 7.0 mph11.3 kmh 30.05 in1017.6 mb - 0.00 in0.0 mm 0.00 in0.0 mm
01:40 PM 46.3°F7.9°C 36.3°F2.4°C 68% 4.7 mph WNW7.6 kmh WNW 7.0 mph11.3 kmh 30.05 in1017.6 mb - 0.00 in0.0 mm 0.00 in0.0 mm
01:50 PM 46.4°F8.0°C 36.4°F2.4°C 68% 6.4 mph WNW10.3 kmh WNW 10.0 mph16.1 kmh 30.06 in1017.9 mb - 0.00 in0.0 mm 0.00 in0.0 mm
02:00 PM 46.4°F8.0°C 36.4°F2.4°C 68% 5.5 mph NW8.9 kmh NW 9.0 mph14.5 kmh 30.06 in1017.9 mb - 0.00 in0.0 mm 0.00 in0.0 mm
02:10 PM 46.2°F7.9°C 35.8°F2.1°C 67% 4.5 mph NW7.2 kmh NW 11.0 mph17.7 kmh 30.05 in1017.6 mb - 0.00 in0.0 mm 0.00 in0.0 mm
02:20 PM 45.9°F7.7°C 35.2°F1.8°C 66% 6.3 mph NW10.1 kmh NW 9.0 mph14.5 kmh 30.05 in1017.6 mb - 0.00 in0.0 mm 0.00 in0.0 mm
02:30 PM 45.7°F7.6°C 35.0°F1.7°C 66% 3.2 mph WSW5.1 kmh WSW 9.0 mph14.5 kmh 30.05 in1017.6 mb - 0.00 in0.0 mm 0.00 in0.0 mm
02:40 PM 45.4°F7.4°C 35.1°F1.7°C 67% 5.3 mph NW8.5 kmh NW 9.0 mph14.5 kmh 30.06 in1017.9 mb - 0.00 in0.0 mm 0.00 in0.0 mm
02:50 PM 45.1°F7.3°C 34.4°F1.3°C 66% 4.1 mph WNW6.6 kmh WNW 5.0 mph8.0 kmh 30.06 in1017.9 mb - 0.00 in0.0 mm 0.00 in0.0 mm
03:00 PM 44.9°F7.2°C 34.6°F1.4°C 67% 2.5 mph WNW4.0 kmh WNW 5.0 mph8.0 kmh 30.06 in1017.9 mb - 0.00 in0.0 mm 0.00 in0.0 mm
03:10 PM 44.5°F6.9°C 34.6°F1.4°C 68% 2.3 mph WSW3.7 kmh WSW 4.0 mph6.4 kmh 30.06 in1017.9 mb - 0.00 in0.0 mm 0.00 in0.0 mm
03:20 PM 44.0°F6.7°C 34.8°F1.6°C 70% 1.7 mph WNW2.7 kmh WNW 4.0 mph6.4 kmh 30.06 in1017.9 mb - 0.00 in0.0 mm 0.00 in0.0 mm
03:30 PM 43.5°F6.4°C 34.8°F1.6°C 71% 0.5 mph NW0.8 kmh NW 3.0 mph4.8 kmh 30.06 in1017.9 mb - 0.00 in0.0 mm 0.00 in0.0 mm
03:40 PM 43.2°F6.2°C 34.4°F1.3°C 71% 0.2 mph WSW0.3 kmh WSW 1.0 mph1.6 kmh 30.06 in1017.9 mb - 0.00 in0.0 mm 0.00 in0.0 mm
03:50 PM 42.7°F5.9°C 34.3°F1.3°C 72% 1.0 mph WSW1.6 kmh WSW 2.0 mph3.2 kmh 30.06 in1017.9 mb - 0.00 in0.0 mm 0.00 in0.0 mm
04:00 PM 42.3°F5.7°C 34.3°F1.3°C 73% Calm Calm -- 30.06 in1017.9 mb - 0.00 in0.0 mm 0.00 in0.0 mm
04:10 PM 41.9°F5.5°C 33.9°F1.1°C 73% Calm Calm -- 30.06 in1017.9 mb - 0.00 in0.0 mm 0.00 in0.0 mm
04:20 PM 41.5°F5.3°C 33.5°F0.8°C 73% 1.1 mph WSW1.8 kmh WSW 2.0 mph3.2 kmh 30.06 in1017.9 mb - 0.00 in0.0 mm 0.00 in0.0 mm
04:30 PM 40.9°F4.9°C 33.2°F0.7°C 74% 1.8 mph WSW2.9 kmh WSW 3.0 mph4.8 kmh 30.06 in1017.9 mb - 0.00 in0.0 mm 0.00 in0.0 mm
04:40 PM 40.4°F4.7°C 33.1°F0.6°C 75% 0.6 mph WSW1.0 kmh WSW 2.0 mph3.2 kmh 30.06 in1017.9 mb - 0.00 in0.0 mm 0.00 in0.0 mm
04:50 PM 40.2°F4.6°C 33.2°F0.7°C 76% 0.2 mph WSW0.3 kmh WSW 3.0 mph4.8 kmh 30.06 in1017.9 mb - 0.00 in0.0 mm 0.00 in0.0 mm
05:00 PM 39.9°F4.4°C 33.2°F0.7°C 77% 0.3 mph WSW0.5 kmh WSW 1.0 mph1.6 kmh 30.07 in1018.3 mb - 0.00 in0.0 mm 0.00 in0.0 mm
05:10 PM 39.5°F4.2°C 32.9°F0.5°C 77% 1.8 mph WSW2.9 kmh WSW 2.0 mph3.2 kmh 30.06 in1017.9 mb - 0.00 in0.0 mm 0.00 in0.0 mm
05:20 PM 39.2°F4.0°C 32.9°F0.5°C 78% Calm Calm -- 30.07 in1018.3 mb - 0.00 in0.0 mm 0.00 in0.0 mm
05:30 PM 39.0°F3.9°C 33.0°F0.6°C 79% 1.4 mph WSW2.3 kmh WSW 2.0 mph3.2 kmh 30.07 in1018.3 mb - 0.00 in0.0 mm 0.00 in0.0 mm
05:40 PM 38.8°F3.8°C 33.2°F0.7°C 80% 0.1 mph WSW0.2 kmh WSW 1.0 mph1.6 kmh 30.07 in1018.3 mb - 0.00 in0.0 mm 0.00 in0.0 mm
05:50 PM 38.4°F3.6°C 32.8°F0.4°C 80% 0.1 mph WSW0.2 kmh WSW 2.0 mph3.2 kmh 30.07 in1018.3 mb - 0.00 in0.0 mm 0.00 in0.0 mm
06:00 PM 37.9°F3.3°C 32.6°F0.3°C 81% 0.2 mph WSW0.3 kmh WSW 2.0 mph3.2 kmh 30.06 in1017.9 mb - 0.00 in0.0 mm 0.00 in0.0 mm
06:10 PM 37.5°F3.1°C 32.5°F0.3°C 82% Calm Calm -- 30.06 in1017.9 mb - 0.00 in0.0 mm 0.00 in0.0 mm
06:20 PM 37.1°F2.8°C 32.1°F0.1°C 82% 1.5 mph W2.4 kmh W 3.0 mph4.8 kmh 30.06 in1017.9 mb - 0.00 in0.0 mm 0.00 in0.0 mm
06:30 PM 36.8°F2.7°C 32.1°F0.1°C 83% 1.4 mph W2.3 kmh W 3.0 mph4.8 kmh 30.07 in1018.3 mb - 0.00 in0.0 mm 0.00 in0.0 mm
06:40 PM 36.6°F2.6°C 32.2°F0.1°C 84% 0.5 mph W0.8 kmh W 1.0 mph1.6 kmh 30.07 in1018.3 mb - 0.00 in0.0 mm 0.00 in0.0 mm
06:50 PM 36.5°F2.5°C 32.1°F0.1°C 84% 0.5 mph W0.8 kmh W 1.0 mph1.6 kmh 30.07 in1018.3 mb - 0.00 in0.0 mm 0.00 in0.0 mm
07:00 PM 36.4°F2.4°C 32.4°F0.2°C 85% 1.1 mph W1.8 kmh W 4.0 mph6.4 kmh 30.07 in1018.3 mb - 0.00 in0.0 mm 0.00 in0.0 mm
07:10 PM 36.5°F2.5°C 32.4°F0.2°C 85% 1.1 mph WSW1.8 kmh WSW 2.0 mph3.2 kmh 30.06 in1017.9 mb - 0.00 in0.0 mm 0.00 in0.0 mm
07:20 PM 36.5°F2.5°C 32.4°F0.2°C 85% 1.9 mph WSW3.1 kmh WSW 4.0 mph6.4 kmh 30.07 in1018.3 mb - 0.00 in0.0 mm 0.00 in0.0 mm
07:30 PM 36.6°F2.6°C 32.8°F0.4°C 86% 0.3 mph WSW0.5 kmh WSW 1.0 mph1.6 kmh 30.07 in1018.3 mb - 0.00 in0.0 mm 0.00 in0.0 mm
07:40 PM 36.5°F2.5°C 32.7°F0.4°C 86% Calm Calm -- 30.08 in1018.6 mb - 0.00 in0.0 mm 0.00 in0.0 mm
07:50 PM 36.4°F2.4°C 32.6°F0.3°C 86% 0.3 mph WSW0.5 kmh WSW 1.0 mph1.6 kmh 30.07 in1018.3 mb - 0.00 in0.0 mm 0.00 in0.0 mm
08:00 PM 36.2°F2.3°C 32.4°F0.2°C 86% 1.3 mph WSW2.1 kmh WSW 3.0 mph4.8 kmh 30.07 in1018.3 mb - 0.00 in0.0 mm 0.00 in0.0 mm
08:10 PM 36.0°F2.2°C 32.2°F0.1°C 86% 3.6 mph W5.8 kmh W 3.0 mph4.8 kmh 30.07 in1018.3 mb - 0.00 in0.0 mm 0.00 in0.0 mm
08:20 PM 36.4°F2.4°C 32.6°F0.3°C 86% 2.3 mph WNW3.7 kmh WNW 6.0 mph9.7 kmh 30.07 in1018.3 mb - 0.00 in0.0 mm 0.00 in0.0 mm
08:30 PM 36.9°F2.7°C 33.4°F0.8°C 87% 3.6 mph WNW5.8 kmh WNW 4.0 mph6.4 kmh 30.07 in1018.3 mb - 0.00 in0.0 mm 0.00 in0.0 mm
08:40 PM 37.3°F2.9°C 33.5°F0.8°C 86% 2.1 mph WNW3.4 kmh WNW 4.0 mph6.4 kmh 30.07 in1018.3 mb - 0.00 in0.0 mm 0.00 in0.0 mm
08:50 PM 37.6°F3.1°C 33.8°F1.0°C 86% 3.2 mph NW5.1 kmh NW 4.0 mph6.4 kmh 30.07 in1018.3 mb - 0.00 in0.0 mm 0.00 in0.0 mm
09:00 PM 37.7°F3.2°C 33.6°F0.9°C 85% 4.1 mph NW6.6 kmh NW 8.0 mph12.9 kmh 30.07 in1018.3 mb - 0.00 in0.0 mm 0.00 in0.0 mm
09:10 PM 37.8°F3.2°C 33.7°F0.9°C 85% 2.7 mph WNW4.3 kmh WNW 6.0 mph9.7 kmh 30.07 in1018.3 mb - 0.00 in0.0 mm 0.00 in0.0 mm
09:20 PM 37.8°F3.2°C 33.4°F0.8°C 84% 3.4 mph NW5.5 kmh NW 9.0 mph14.5 kmh 30.07 in1018.3 mb - 0.00 in0.0 mm 0.00 in0.0 mm
09:30 PM 37.8°F3.2°C 33.4°F0.8°C 84% 3.7 mph NW6.0 kmh NW 7.0 mph11.3 kmh 30.08 in1018.6 mb - 0.00 in0.0 mm 0.00 in0.0 mm
09:40 PM 37.9°F3.3°C 33.2°F0.7°C 83% 3.1 mph NW5.0 kmh NW 5.0 mph8.0 kmh 30.07 in1018.3 mb - 0.00 in0.0 mm 0.00 in0.0 mm
09:50 PM 37.8°F3.2°C 32.8°F0.4°C 82% 3.5 mph NW5.6 kmh NW 6.0 mph9.7 kmh 30.08 in1018.6 mb - 0.00 in0.0 mm 0.00 in0.0 mm
10:00 PM 37.7°F3.2°C 32.7°F0.4°C 82% 3.8 mph NW6.1 kmh NW 5.0 mph8.0 kmh 30.08 in1018.6 mb - 0.00 in0.0 mm 0.00 in0.0 mm
10:10 PM 37.7°F3.2°C 32.4°F0.2°C 81% 2.6 mph WNW4.2 kmh WNW 5.0 mph8.0 kmh 30.08 in1018.6 mb - 0.00 in0.0 mm 0.00 in0.0 mm
10:20 PM 37.6°F3.1°C 32.3°F0.2°C 81% 4.0 mph WNW6.4 kmh WNW 6.0 mph9.7 kmh 30.08 in1018.6 mb - 0.00 in0.0 mm 0.00 in0.0 mm
10:30 PM 37.5°F3.1°C 31.9°F-0.1°C 80% 3.7 mph WNW6.0 kmh WNW 9.0 mph14.5 kmh 30.08 in1018.6 mb - 0.00 in0.0 mm 0.00 in0.0 mm
10:40 PM 37.4°F3.0°C 31.5°F-0.3°C 79% 1.5 mph WNW2.4 kmh WNW 4.0 mph6.4 kmh 30.08 in1018.6 mb - 0.00 in0.0 mm 0.00 in0.0 mm
10:50 PM 37.3°F2.9°C 31.4°F-0.3°C 79% 2.1 mph NW3.4 kmh NW 5.0 mph8.0 kmh 30.09 in1019.0 mb - 0.00 in0.0 mm 0.00 in0.0 mm
11:00 PM 37.2°F2.9°C 31.3°F-0.4°C 79% 1.9 mph WNW3.1 kmh WNW 4.0 mph6.4 kmh 30.09 in1019.0 mb - 0.00 in0.0 mm 0.00 in0.0 mm
11:10 PM 37.0°F2.8°C 30.8°F-0.7°C 78% 0.9 mph NW1.4 kmh NW 3.0 mph4.8 kmh 30.09 in1019.0 mb - 0.00 in0.0 mm 0.00 in0.0 mm
11:20 PM 36.9°F2.7°C 30.7°F-0.7°C 78% 1.6 mph NW2.6 kmh NW 5.0 mph8.0 kmh 30.09 in1019.0 mb - 0.00 in0.0 mm 0.00 in0.0 mm
11:30 PM 36.6°F2.6°C 30.4°F-0.9°C 78% 0.9 mph WSW1.4 kmh WSW 1.0 mph1.6 kmh 30.09 in1019.0 mb - 0.00 in0.0 mm 0.00 in0.0 mm
11:40 PM 36.4°F2.4°C 30.5°F-0.8°C 79% 1.7 mph WNW2.7 kmh WNW 4.0 mph6.4 kmh 30.09 in1019.0 mb - 0.00 in0.0 mm 0.00 in0.0 mm
11:50 PM 36.1°F2.3°C 30.2°F-1.0°C 79% 0.8 mph NW1.3 kmh NW 2.0 mph3.2 kmh 30.09 in1019.0 mb - 0.00 in0.0 mm 0.00 in0.0 mm